createdAt,value
2022-10-18T00:00:06.089Z,9.57
2022-10-18T00:02:35.272Z,9.57
2022-10-18T00:05:01.929Z,9.90
2022-10-18T00:07:29.105Z,9.57
2022-10-18T00:09:55.943Z,9.80
2022-10-18T00:12:22.597Z,9.20
2022-10-18T00:14:50.927Z,9.98
2022-10-18T00:17:18.228Z,10.55
2022-10-18T00:19:44.937Z,10.30
2022-10-18T00:22:11.493Z,10.60
2022-10-18T00:24:38.018Z,10.98
2022-10-18T00:27:04.573Z,10.73
2022-10-18T00:29:31.186Z,10.27
2022-10-18T00:31:57.823Z,10.25
2022-10-18T00:34:24.731Z,11.13
2022-10-18T00:36:51.278Z,10.45
2022-10-18T00:39:20.513Z,9.85
2022-10-18T00:41:47.937Z,10.00
2022-10-18T00:44:17.447Z,9.63
2022-10-18T00:46:47.488Z,10.40
2022-10-18T00:49:40.940Z,10.55
2022-10-18T00:52:11.707Z,10.02
2022-10-18T00:54:40.229Z,9.65
2022-10-18T00:57:07.804Z,10.75
2022-10-18T00:59:34.970Z,10.10
2022-10-18T01:02:02.271Z,10.55
2022-10-18T01:04:28.937Z,10.82
2022-10-18T01:07:25.532Z,10.43
2022-10-18T01:10:04.456Z,10.50
2022-10-18T01:12:56.070Z,10.23
2022-10-18T01:15:38.291Z,11.07
2022-10-18T01:18:17.045Z,11.02
2022-10-18T01:20:56.024Z,11.20
2022-10-18T01:23:48.624Z,11.27
2022-10-18T01:26:46.770Z,10.05
2022-10-18T01:29:41.311Z,9.93
2022-10-18T01:32:26.999Z,10.15
2022-10-18T01:34:59.282Z,10.45
2022-10-18T01:37:27.660Z,10.73
2022-10-18T01:39:57.477Z,11.35
2022-10-18T01:42:25.250Z,10.90
2022-10-18T01:44:53.622Z,10.75
2022-10-18T01:47:21.492Z,10.30
2022-10-18T01:49:48.156Z,10.20
2022-10-18T01:52:16.639Z,11.57
2022-10-18T01:54:49.079Z,11.32
2022-10-18T01:57:42.788Z,10.40
2022-10-18T02:00:18.016Z,10.57
2022-10-18T02:03:06.800Z,10.48
2022-10-18T02:05:43.998Z,10.93
2022-10-18T02:08:33.501Z,9.85
2022-10-18T02:11:02.340Z,9.40
2022-10-18T02:14:03.159Z,10.13
2022-10-18T02:16:41.654Z,9.90
2022-10-18T02:19:32.715Z,10.68
2022-10-18T02:22:00.024Z,9.57
2022-10-18T02:24:34.622Z,10.73
2022-10-18T02:27:02.079Z,9.85
2022-10-18T02:29:29.676Z,10.32
2022-10-18T02:32:21.470Z,10.35
2022-10-18T02:34:57.096Z,11.30
2022-10-18T02:39:53.254Z,9.80
2022-10-18T02:42:19.785Z,9.20
2022-10-18T02:44:46.359Z,9.50
2022-10-18T02:47:13.077Z,9.50
2022-10-18T02:49:40.041Z,9.45
2022-10-18T02:52:07.056Z,9.75
2022-10-18T02:54:33.641Z,9.70
2022-10-18T02:57:00.372Z,9.55
2022-10-18T02:59:26.956Z,9.45
2022-10-18T03:01:53.557Z,9.85
2022-10-18T03:04:20.197Z,9.35
2022-10-18T03:06:46.887Z,10.45
2022-10-18T03:09:13.603Z,10.02
2022-10-18T03:11:40.167Z,10.93
2022-10-18T03:14:06.705Z,10.80
2022-10-18T03:16:34.178Z,10.23
2022-10-18T03:19:00.953Z,10.48
2022-10-18T03:21:27.539Z,9.80
2022-10-18T03:23:54.073Z,9.95
2022-10-18T03:26:21.541Z,10.20
2022-10-18T03:28:48.198Z,9.77
2022-10-18T03:31:14.704Z,10.55
2022-10-18T03:33:41.222Z,10.13
2022-10-18T03:36:08.140Z,11.77
2022-10-18T03:38:34.710Z,11.20
2022-10-18T03:41:01.320Z,11.65
2022-10-18T03:43:27.834Z,11.82
2022-10-18T03:45:54.602Z,11.02
2022-10-18T03:48:21.559Z,11.20
2022-10-18T03:50:48.097Z,10.90
2022-10-18T03:53:14.711Z,10.50
2022-10-18T03:55:41.278Z,10.63
2022-10-18T03:58:07.857Z,12.15
2022-10-18T04:00:34.921Z,11.52
2022-10-18T04:03:01.496Z,11.10
2022-10-18T04:05:30.679Z,11.90
2022-10-18T04:07:57.729Z,10.65
2022-10-18T04:10:24.325Z,11.48
2022-10-18T04:12:50.979Z,10.00
2022-10-18T04:15:18.305Z,9.65
2022-10-18T04:17:44.813Z,10.20
2022-10-18T04:20:11.926Z,10.68
2022-10-18T04:22:38.449Z,10.60
2022-10-18T04:25:05.358Z,11.32
2022-10-18T04:27:32.302Z,11.90
2022-10-18T04:29:59.074Z,11.45
2022-10-18T04:32:27.791Z,11.02
2022-10-18T04:34:54.402Z,10.63
2022-10-18T04:37:20.884Z,10.73
2022-10-18T04:39:51.231Z,10.85
2022-10-18T04:42:20.887Z,10.43
2022-10-18T04:44:47.550Z,10.18
2022-10-18T04:47:14.101Z,11.25
2022-10-18T04:49:40.623Z,10.68
2022-10-18T04:52:07.261Z,11.88
2022-10-18T04:54:33.847Z,10.52
2022-10-18T04:57:00.624Z,11.77
2022-10-18T04:59:27.214Z,10.60
2022-10-18T05:01:53.834Z,11.43
2022-10-18T05:04:20.713Z,10.23
2022-10-18T05:06:47.290Z,10.25
2022-10-18T05:09:14.187Z,9.88
2022-10-18T05:11:40.777Z,10.80
2022-10-18T05:14:10.158Z,10.85
2022-10-18T05:16:36.841Z,10.65
2022-10-18T05:19:05.596Z,11.65
2022-10-18T05:21:32.835Z,11.07
2022-10-18T05:23:59.562Z,11.18
2022-10-18T05:26:26.172Z,11.88
2022-10-18T05:28:52.820Z,11.20
2022-10-18T05:31:19.394Z,11.35
2022-10-18T05:33:45.925Z,11.70
2022-10-18T05:36:12.620Z,10.85
2022-10-18T05:38:42.655Z,10.73
2022-10-18T05:41:09.868Z,11.27
2022-10-18T05:43:36.425Z,11.27
2022-10-18T05:46:04.732Z,9.90
2022-10-18T05:48:31.449Z,11.30
2022-10-18T05:50:59.473Z,11.82
2022-10-18T05:53:42.181Z,10.35
2022-10-18T05:56:09.145Z,10.88
2022-10-18T05:58:36.178Z,11.93
2022-10-18T06:01:04.823Z,11.52
2022-10-18T06:03:32.202Z,10.85
2022-10-18T06:06:04.532Z,11.23
2022-10-18T06:08:31.639Z,10.63
2022-10-18T06:10:58.411Z,10.65
2022-10-18T06:13:24.960Z,10.70
2022-10-18T06:15:56.163Z,10.43
2022-10-18T06:18:22.677Z,10.85
2022-10-18T06:20:49.231Z,11.10
2022-10-18T06:23:15.722Z,10.20
2022-10-18T06:25:42.207Z,10.95
2022-10-18T06:28:10.220Z,10.32
2022-10-18T06:30:38.811Z,11.02
2022-10-18T06:33:05.441Z,10.60
2022-10-18T06:35:31.965Z,11.35
2022-10-18T06:37:58.608Z,11.27
2022-10-18T06:40:25.207Z,12.52
2022-10-18T06:43:00.692Z,10.77
2022-10-18T06:45:37.154Z,10.00
2022-10-18T06:48:03.781Z,8.27
2022-10-18T06:50:30.253Z,9.25
2022-10-18T06:52:56.723Z,9.52
2022-10-18T06:55:23.511Z,10.45
2022-10-18T06:57:50.257Z,10.77
2022-10-18T07:00:17.046Z,11.98
2022-10-18T07:02:43.602Z,11.15
2022-10-18T07:05:11.410Z,11.73
2022-10-18T07:07:37.974Z,12.10
2022-10-18T07:10:05.169Z,11.18
2022-10-18T07:12:32.653Z,11.80
2022-10-18T07:14:59.508Z,11.82
2022-10-18T07:17:26.839Z,12.13
2022-10-18T07:19:53.493Z,11.60
2022-10-18T07:22:19.981Z,11.55
2022-10-18T07:24:46.591Z,11.93
2022-10-18T07:27:13.106Z,12.45
2022-10-18T07:29:40.641Z,13.30
2022-10-18T07:32:07.130Z,13.88
2022-10-18T07:34:33.705Z,12.00
2022-10-18T07:37:01.881Z,12.68
2022-10-18T07:39:28.379Z,12.38
2022-10-18T07:41:54.897Z,14.40
2022-10-18T07:44:21.713Z,14.27
2022-10-18T07:46:48.327Z,16.02
2022-10-18T07:49:14.860Z,15.60
2022-10-18T07:51:41.350Z,13.70
2022-10-18T07:54:08.825Z,13.18
2022-10-18T07:56:35.495Z,13.57
2022-10-18T07:59:02.138Z,13.82
2022-10-18T08:01:28.881Z,13.77
2022-10-18T08:03:55.505Z,14.20
2022-10-18T08:06:23.010Z,12.65
2022-10-18T08:08:49.809Z,14.40
2022-10-18T08:11:21.980Z,14.02
2022-10-18T08:13:48.936Z,13.35
2022-10-18T08:16:19.084Z,14.15
2022-10-18T08:18:45.879Z,13.23
2022-10-18T08:21:14.610Z,13.88
2022-10-18T08:23:41.947Z,15.00
2022-10-18T08:26:11.470Z,15.02
2022-10-18T08:28:38.817Z,14.43
2022-10-18T08:31:07.468Z,14.15
2022-10-18T08:33:35.860Z,15.13
2022-10-18T08:36:07.739Z,14.13
2022-10-18T08:38:36.656Z,15.55
2022-10-18T08:41:42.465Z,14.18
2022-10-18T08:44:20.789Z,13.90
2022-10-18T08:46:59.836Z,14.07
2022-10-18T08:49:36.156Z,12.88
2022-10-18T08:52:06.179Z,14.20
2022-10-18T08:54:44.249Z,13.55
2022-10-18T08:57:18.080Z,14.48
2022-10-18T08:59:44.696Z,14.45
2022-10-18T09:02:16.972Z,14.02
2022-10-18T09:05:00.034Z,14.20
2022-10-18T09:07:45.032Z,14.00
2022-10-18T09:10:20.173Z,15.60
2022-10-18T09:13:08.774Z,15.68
2022-10-18T09:15:45.867Z,14.43
2022-10-18T09:18:17.690Z,16.02
2022-10-18T09:20:56.562Z,16.42
2022-10-18T09:23:56.526Z,16.15
2022-10-18T09:26:24.324Z,15.27
2022-10-18T09:29:10.687Z,14.75
2022-10-18T09:31:50.578Z,14.32
2022-10-18T09:34:25.857Z,14.60
2022-10-18T09:36:53.644Z,14.57
2022-10-18T09:39:25.640Z,15.45
2022-10-18T09:42:04.087Z,14.57
2022-10-18T09:44:39.922Z,14.88
2022-10-18T09:47:23.227Z,15.27
2022-10-18T09:49:57.965Z,15.68
2022-10-18T09:52:45.624Z,15.13
2022-10-18T09:55:24.043Z,14.30
2022-10-18T09:57:55.574Z,14.82
2022-10-18T10:00:31.719Z,14.07
2022-10-18T10:03:01.341Z,14.68
2022-10-18T10:05:28.149Z,15.38
2022-10-18T10:07:59.907Z,15.80
2022-10-18T10:10:29.550Z,14.50
2022-10-18T10:13:26.152Z,13.73
2022-10-18T10:15:58.201Z,13.35
2022-10-18T10:18:43.833Z,14.48
2022-10-18T10:21:16.042Z,13.73
2022-10-18T10:23:50.903Z,14.13
2022-10-18T10:26:20.501Z,14.15
2022-10-18T10:28:48.849Z,13.35
2022-10-18T10:31:24.809Z,12.82
2022-10-18T10:34:14.691Z,11.55
2022-10-18T10:36:53.023Z,11.43
2022-10-18T10:39:21.660Z,11.95
2022-10-18T10:41:50.493Z,11.00
2022-10-18T10:44:25.011Z,11.85
2022-10-18T10:46:52.971Z,12.05
2022-10-18T10:49:39.598Z,12.07
2022-10-18T10:52:27.003Z,12.05
2022-10-18T10:55:05.777Z,11.52
2022-10-18T10:57:46.131Z,11.88
2022-10-18T11:00:36.596Z,12.43
2022-10-18T11:03:34.019Z,13.18
2022-10-18T11:06:01.808Z,11.35
2022-10-18T11:08:33.961Z,10.23
2022-10-18T11:11:22.920Z,11.70
2022-10-18T11:14:07.310Z,10.73
2022-10-18T11:16:57.121Z,10.45
2022-10-18T11:19:34.629Z,11.95
2022-10-18T11:22:05.910Z,10.55
2022-10-18T11:24:35.441Z,11.63
2022-10-18T11:27:10.723Z,12.88
2022-10-18T11:29:48.082Z,12.40
2022-10-18T11:32:34.083Z,10.43
2022-10-18T11:35:38.941Z,12.18
2022-10-18T11:38:19.036Z,12.00
2022-10-18T11:40:57.959Z,11.98
2022-10-18T11:44:02.109Z,11.95
2022-10-18T11:46:56.901Z,10.35
2022-10-18T11:50:02.513Z,11.02
2022-10-18T11:52:51.636Z,10.13
2022-10-18T11:55:38.507Z,9.65
2022-10-18T11:58:19.978Z,9.30
2022-10-18T12:00:52.139Z,8.07
2022-10-18T12:03:42.724Z,9.07
2022-10-18T12:06:17.073Z,9.38
2022-10-18T12:08:50.897Z,8.57
2022-10-18T12:11:31.997Z,9.18
2022-10-18T12:14:04.746Z,8.20
2022-10-18T12:16:50.958Z,8.73
2022-10-18T12:19:27.019Z,8.48
2022-10-18T12:21:58.191Z,7.47
2022-10-18T12:24:32.305Z,8.40
2022-10-18T12:27:01.436Z,8.75
2022-10-18T12:29:31.670Z,8.68
2022-10-18T12:32:14.868Z,9.18
2022-10-18T12:34:54.717Z,8.77
2022-10-18T12:37:49.391Z,8.88
2022-10-18T12:40:41.110Z,8.52
2022-10-18T12:43:10.834Z,8.57
2022-10-18T12:45:59.113Z,8.63
2022-10-18T12:48:42.565Z,8.00
2022-10-18T12:51:20.143Z,8.40
2022-10-18T12:53:49.393Z,8.00
2022-10-18T12:56:27.881Z,6.95
2022-10-18T12:59:16.079Z,6.03
2022-10-18T13:01:51.681Z,5.60
2022-10-18T13:04:27.161Z,4.70
2022-10-18T13:06:59.835Z,4.90
2022-10-18T13:09:59.137Z,4.65
2022-10-18T13:12:28.783Z,3.97
2022-10-18T13:15:26.991Z,4.22
2022-10-18T13:18:03.210Z,3.78
2022-10-18T13:20:44.412Z,3.33
2022-10-18T13:23:38.669Z,3.30
2022-10-18T13:26:37.725Z,3.30
2022-10-18T13:29:13.470Z,3.13
2022-10-18T13:31:47.704Z,3.13
2022-10-18T13:34:32.921Z,2.47
2022-10-18T13:37:19.715Z,2.80
2022-10-18T13:39:46.628Z,2.55
2022-10-18T13:42:15.897Z,2.60
2022-10-18T13:44:44.706Z,2.47
2022-10-18T13:47:14.829Z,2.85
2022-10-18T13:50:03.026Z,2.47
2022-10-18T13:52:47.688Z,1.77
2022-10-18T13:55:26.469Z,2.03
2022-10-18T13:58:21.115Z,2.15
2022-10-18T14:00:59.633Z,1.50
2022-10-18T14:03:56.981Z,1.65
2022-10-18T14:06:28.206Z,2.00
2022-10-18T14:12:39.644Z,2.03
2022-10-18T14:15:26.640Z,2.03
2022-10-18T14:18:05.437Z,1.70
2022-10-18T14:20:55.161Z,1.58
2022-10-18T14:23:36.579Z,1.70
2022-10-18T14:26:14.777Z,1.50
2022-10-18T14:28:59.011Z,1.33
2022-10-18T14:31:27.408Z,1.40
2022-10-18T14:33:57.971Z,1.45
2022-10-18T14:36:34.747Z,1.70
2022-10-18T14:39:03.919Z,1.80
2022-10-18T14:41:33.263Z,1.40
2022-10-18T14:44:31.068Z,1.33
2022-10-18T14:47:02.585Z,1.58
2022-10-18T14:49:29.721Z,1.48
2022-10-18T14:51:59.305Z,1.73
2022-10-18T14:54:37.067Z,1.88
2022-10-18T14:57:05.735Z,1.40
2022-10-18T14:59:45.164Z,1.30
2022-10-18T15:02:17.518Z,1.98
2022-10-18T15:04:45.740Z,1.52
2022-10-18T15:07:18.093Z,1.88
2022-10-18T15:09:46.928Z,1.67
2022-10-18T15:12:15.998Z,1.85
2022-10-18T15:14:43.641Z,1.73
2022-10-18T15:17:21.548Z,1.40
2022-10-18T15:19:56.098Z,2.03
2022-10-18T15:22:33.062Z,1.55
2022-10-18T15:25:05.534Z,1.38
2022-10-18T15:27:36.867Z,1.80
2022-10-18T15:30:19.963Z,1.75
2022-10-18T15:32:49.759Z,1.70
2022-10-18T15:35:24.994Z,1.95
2022-10-18T15:37:53.565Z,1.73
2022-10-18T15:40:23.130Z,1.83
2022-10-18T15:42:55.499Z,1.70
2022-10-18T15:45:25.005Z,1.60
2022-10-18T15:48:00.495Z,2.03
2022-10-18T15:50:47.666Z,1.85
2022-10-18T15:53:41.987Z,1.90
2022-10-18T15:56:31.388Z,1.85
2022-10-18T15:59:00.789Z,2.33
2022-10-18T16:01:56.215Z,2.13
2022-10-18T16:04:29.153Z,1.63
2022-10-18T16:06:57.252Z,1.80
2022-10-18T16:09:26.382Z,1.77
2022-10-18T16:11:57.044Z,1.88
2022-10-18T16:14:25.317Z,1.63
2022-10-18T16:16:55.012Z,1.52
2022-10-18T16:19:22.870Z,1.30
2022-10-18T16:21:51.142Z,1.30
2022-10-18T16:24:18.840Z,1.13
2022-10-18T16:26:45.631Z,1.40
2022-10-18T16:29:15.504Z,1.40
2022-10-18T16:31:42.489Z,1.67
2022-10-18T16:34:11.980Z,1.90
2022-10-18T16:36:38.694Z,1.17
2022-10-18T16:39:10.248Z,1.48
2022-10-18T16:41:36.798Z,1.60
2022-10-18T16:44:03.957Z,1.33
2022-10-18T16:46:32.763Z,1.58
2022-10-18T16:49:00.252Z,1.50
2022-10-18T16:51:27.348Z,1.33
2022-10-18T16:53:54.719Z,1.63
2022-10-18T16:56:25.220Z,1.88
2022-10-18T16:58:52.696Z,1.30
2022-10-18T17:01:21.600Z,1.50
2022-10-18T17:03:51.069Z,1.58
2022-10-18T17:06:29.363Z,1.33
2022-10-18T17:08:57.063Z,1.38
2022-10-18T17:11:26.732Z,1.40
2022-10-18T17:13:55.959Z,1.80
2022-10-18T17:16:31.586Z,1.90
2022-10-18T17:19:00.447Z,1.80
2022-10-18T17:21:28.218Z,1.90
2022-10-18T17:24:00.386Z,1.90
2022-10-18T17:26:29.292Z,2.00
2022-10-18T17:29:02.972Z,1.63
2022-10-18T17:31:30.952Z,2.30
2022-10-18T17:33:58.784Z,2.00
2022-10-18T17:36:26.062Z,2.88
2022-10-18T17:38:56.095Z,2.13
2022-10-18T17:41:22.979Z,2.97
2022-10-18T17:43:49.650Z,3.15
2022-10-18T17:46:17.785Z,2.00
2022-10-18T17:48:44.603Z,1.90
2022-10-18T17:51:14.041Z,2.30
2022-10-18T17:53:40.653Z,1.77
2022-10-18T17:56:07.888Z,2.13
2022-10-18T17:58:35.021Z,2.28
2022-10-18T18:01:15.503Z,1.95
2022-10-18T18:03:42.120Z,2.08
2022-10-18T18:06:17.906Z,1.73
2022-10-18T18:08:45.741Z,1.58
2022-10-18T18:11:13.262Z,2.15
2022-10-18T18:13:39.943Z,1.95
2022-10-18T18:16:21.745Z,2.10
2022-10-18T18:18:50.764Z,2.25
2022-10-18T18:21:17.362Z,1.85
2022-10-18T18:23:44.553Z,2.33
2022-10-18T18:26:14.270Z,2.00
2022-10-18T18:28:41.209Z,1.73
2022-10-18T18:31:14.360Z,1.58
2022-10-18T18:33:41.352Z,2.35
2022-10-18T18:36:09.124Z,2.10
2022-10-18T18:38:38.005Z,1.70
2022-10-18T18:41:08.992Z,1.77
2022-10-18T18:43:37.396Z,1.77
2022-10-18T18:46:04.889Z,1.98
2022-10-18T18:48:33.193Z,2.20
2022-10-18T18:51:00.184Z,1.98
2022-10-18T18:53:29.392Z,1.80
2022-10-18T18:56:05.003Z,1.92
2022-10-18T18:58:32.283Z,1.90
2022-10-18T19:00:59.163Z,1.73
2022-10-18T19:03:25.681Z,2.13
2022-10-18T19:06:02.294Z,1.85
2022-10-18T19:08:28.872Z,1.77
2022-10-18T19:10:55.376Z,1.80
2022-10-18T19:13:22.322Z,2.00
2022-10-18T19:15:48.884Z,1.60
2022-10-18T19:18:15.772Z,1.88
2022-10-18T19:20:44.059Z,1.95
2022-10-18T19:23:10.595Z,1.73
2022-10-18T19:25:37.111Z,1.88
2022-10-18T19:28:03.709Z,1.80
2022-10-18T19:30:30.242Z,1.75
2022-10-18T19:33:03.956Z,1.85
2022-10-18T19:35:32.852Z,1.80
2022-10-18T19:37:59.371Z,1.95
2022-10-18T19:40:25.982Z,1.60
2022-10-18T19:42:52.604Z,1.80
2022-10-18T19:45:19.115Z,2.00
2022-10-18T19:47:45.632Z,1.98
2022-10-18T19:50:12.156Z,1.77
2022-10-18T19:52:38.712Z,2.13
2022-10-18T19:55:05.884Z,2.25
2022-10-18T19:57:32.421Z,2.33
2022-10-18T20:00:00.716Z,2.63
2022-10-18T20:02:30.021Z,2.58
2022-10-18T20:04:56.991Z,2.45
2022-10-18T20:07:23.487Z,2.40
2022-10-18T20:09:50.197Z,2.85
2022-10-18T20:12:16.712Z,2.10
2022-10-18T20:14:43.240Z,2.28
2022-10-18T20:17:12.840Z,2.17
2022-10-18T20:19:39.472Z,2.10
2022-10-18T20:22:06.052Z,2.22
2022-10-18T20:24:32.607Z,2.80
2022-10-18T20:26:59.134Z,2.15
2022-10-18T20:29:28.926Z,2.47
2022-10-18T20:31:55.739Z,2.08
2022-10-18T20:34:25.935Z,2.40
2022-10-18T20:36:55.704Z,2.30
2022-10-18T20:39:22.712Z,2.45
2022-10-18T20:41:49.326Z,2.45
2022-10-18T20:47:01.340Z,2.17
2022-10-18T20:49:28.096Z,2.60
2022-10-18T20:51:54.659Z,2.08
2022-10-18T20:54:21.305Z,2.33
2022-10-18T20:56:47.803Z,2.13
2022-10-18T20:59:14.739Z,2.20
2022-10-18T21:01:41.447Z,2.10
2022-10-18T21:04:11.761Z,2.10
2022-10-18T21:06:41.187Z,2.13
2022-10-18T21:09:13.730Z,2.00
2022-10-18T21:11:42.435Z,2.50
2022-10-18T21:14:14.586Z,2.20
2022-10-18T21:16:41.755Z,2.17
2022-10-18T21:19:12.900Z,2.30
2022-10-18T21:21:41.642Z,2.20
2022-10-18T21:24:08.397Z,2.13
2022-10-18T21:26:35.824Z,2.30
2022-10-18T21:29:04.032Z,2.53
2022-10-18T21:31:32.832Z,2.00
2022-10-18T21:34:01.968Z,2.28
2022-10-18T21:36:35.035Z,2.08
2022-10-18T21:39:07.746Z,2.15
2022-10-18T21:41:35.342Z,2.10
2022-10-18T21:44:05.643Z,2.03
2022-10-18T21:46:35.738Z,2.30
2022-10-18T21:49:02.312Z,2.60
2022-10-18T21:51:28.906Z,2.50
2022-10-18T21:53:56.915Z,2.40
2022-10-18T21:56:29.346Z,2.28
2022-10-18T21:58:56.811Z,2.45
2022-10-18T22:01:29.443Z,2.40
2022-10-18T22:03:56.746Z,2.10
2022-10-18T22:06:24.959Z,2.17
2022-10-18T22:08:56.686Z,2.33
2022-10-18T22:11:27.676Z,2.08
2022-10-18T22:13:54.694Z,2.30
2022-10-18T22:16:21.685Z,2.40
2022-10-18T22:18:49.615Z,2.10
2022-10-18T22:21:18.329Z,2.10
2022-10-18T22:23:47.465Z,1.60
2022-10-18T22:26:20.636Z,2.40
2022-10-18T22:28:48.191Z,1.88
2022-10-18T22:31:22.550Z,2.22
2022-10-18T22:34:04.042Z,2.25
2022-10-18T22:36:31.357Z,2.15
2022-10-18T22:38:58.166Z,1.98
2022-10-18T22:41:24.858Z,2.75
2022-10-18T22:43:52.344Z,2.30
2022-10-18T22:46:19.085Z,2.45
2022-10-18T22:48:45.840Z,2.03
2022-10-18T22:51:12.498Z,2.03
2022-10-18T22:53:40.036Z,2.15
2022-10-18T22:56:08.621Z,2.08
2022-10-18T22:58:35.235Z,2.20
2022-10-18T23:01:04.506Z,2.38
2022-10-18T23:03:31.387Z,2.00
2022-10-18T23:05:58.415Z,1.90
2022-10-18T23:08:25.759Z,2.05
2022-10-18T23:10:55.475Z,2.10
2022-10-18T23:13:23.474Z,1.92
2022-10-18T23:15:50.181Z,2.00
2022-10-18T23:18:17.688Z,1.77
2022-10-18T23:20:44.870Z,2.13
2022-10-18T23:23:12.771Z,1.85
2022-10-18T23:25:39.427Z,2.03
2022-10-18T23:28:06.204Z,1.98
2022-10-18T23:30:32.924Z,1.90
2022-10-18T23:32:59.462Z,1.88
2022-10-18T23:35:25.984Z,1.90
2022-10-18T23:37:52.803Z,1.50
2022-10-18T23:40:19.444Z,1.83
2022-10-18T23:42:45.931Z,1.50
2022-10-18T23:45:12.477Z,2.05
2022-10-18T23:47:39.008Z,1.40
2022-10-18T23:50:06.362Z,1.40
2022-10-18T23:52:32.856Z,1.30
2022-10-18T23:54:59.321Z,1.38
2022-10-18T23:57:25.840Z,1.45
2022-10-18T23:59:52.341Z,1.83
